sensor_id;sensor_type;location;lat;lon;timestamp;P1;P2;P0
31163;PMS5003;17796;49.296;-117.656;2022-08-01T00:12:54;19;18;
31163;PMS5003;17796;49.296;-117.656;2022-08-01T00:27:57;22;22;
31163;PMS5003;17796;49.296;-117.656;2022-08-01T00:43:01;22;22;
31163;PMS5003;17796;49.296;-117.656;2022-08-01T00:58:05;19;19;
31163;PMS5003;17796;49.296;-117.656;2022-08-01T01:13:12;23;23;
31163;PMS5003;17796;49.296;-117.656;2022-08-01T01:28:27;24;23;
31163;PMS5003;17796;49.296;-117.656;2022-08-01T01:43:34;20;20;
31163;PMS5003;17796;49.296;-117.656;2022-08-01T01:58:39;21;18;
31163;PMS5003;17796;49.296;-117.656;2022-08-01T02:13:43;23;22;
31163;PMS5003;17796;49.296;-117.656;2022-08-01T02:28:50;28;27;
31163;PMS5003;17796;49.296;-117.656;2022-08-01T02:44:00;26;24;
31163;PMS5003;17796;49.296;-117.656;2022-08-01T02:59:07;25;24;
31163;PMS5003;17796;49.296;-117.656;2022-08-01T03:14:13;28;26;
31163;PMS5003;17796;49.296;-117.656;2022-08-01T03:29:22;29;25;
31163;PMS5003;17796;49.296;-117.656;2022-08-01T03:44:28;24;22;
31163;PMS5003;17796;49.296;-117.656;2022-08-01T03:59:35;21;21;
31163;PMS5003;17796;49.296;-117.656;2022-08-01T04:14:39;28;21;
31163;PMS5003;17796;49.296;-117.656;2022-08-01T04:29:43;21;20;
31163;PMS5003;17796;49.296;-117.656;2022-08-01T04:44:47;20;20;
31163;PMS5003;17796;49.296;-117.656;2022-08-01T04:59:51;24;23;
31163;PMS5003;17796;49.296;-117.656;2022-08-01T05:14:54;23;23;
31163;PMS5003;17796;49.296;-117.656;2022-08-01T05:29:58;34;30;
31163;PMS5003;17796;49.296;-117.656;2022-08-01T05:45:02;26;24;
31163;PMS5003;17796;49.296;-117.656;2022-08-01T06:00:08;28;24;
31163;PMS5003;17796;49.296;-117.656;2022-08-01T06:15:13;29;27;
31163;PMS5003;17796;49.296;-117.656;2022-08-01T06:30:16;26;26;
31163;PMS5003;17796;49.296;-117.656;2022-08-01T06:45:20;21;19;
31163;PMS5003;17796;49.296;-117.656;2022-08-01T07:00:25;21;21;
31163;PMS5003;17796;49.296;-117.656;2022-08-01T07:15:29;19;19;
31163;PMS5003;17796;49.296;-117.656;2022-08-01T07:30:32;27;25;
31163;PMS5003;17796;49.296;-117.656;2022-08-01T07:45:36;22;21;
31163;PMS5003;17796;49.296;-117.656;2022-08-01T08:00:40;24;24;
31163;PMS5003;17796;49.296;-117.656;2022-08-01T08:15:43;24;19;
31163;PMS5003;17796;49.296;-117.656;2022-08-01T08:30:47;22;18;
31163;PMS5003;17796;49.296;-117.656;2022-08-01T08:45:51;14;14;
31163;PMS5003;17796;49.296;-117.656;2022-08-01T09:00:55;12;11;
31163;PMS5003;17796;49.296;-117.656;2022-08-01T09:15:59;12;12;
31163;PMS5003;17796;49.296;-117.656;2022-08-01T09:31:07;11;10;
31163;PMS5003;17796;49.296;-117.656;2022-08-01T09:46:12;9;8;
31163;PMS5003;17796;49.296;-117.656;2022-08-01T10:01:15;8;6;
31163;PMS5003;17796;49.296;-117.656;2022-08-01T10:16:20;7;7;
31163;PMS5003;17796;49.296;-117.656;2022-08-01T10:31:24;6;6;
31163;PMS5003;17796;49.296;-117.656;2022-08-01T10:46:27;5;5;
31163;PMS5003;17796;49.296;-117.656;2022-08-01T11:01:33;4;4;
31163;PMS5003;17796;49.296;-117.656;2022-08-01T11:16:38;5;5;
31163;PMS5003;17796;49.296;-117.656;2022-08-01T11:31:42;5;5;
31163;PMS5003;17796;49.296;-117.656;2022-08-01T11:46:50;3;3;
31163;PMS5003;17796;49.296;-117.656;2022-08-01T12:01:53;9;6;
31163;PMS5003;17796;49.296;-117.656;2022-08-01T12:16:57;6;6;
31163;PMS5003;17796;49.296;-117.656;2022-08-01T12:32:01;7;7;
31163;PMS5003;17796;49.296;-117.656;2022-08-01T12:47:06;6;6;
31163;PMS5003;17796;49.296;-117.656;2022-08-01T13:02:10;6;6;
31163;PMS5003;17796;49.296;-117.656;2022-08-01T13:17:30;7;7;
31163;PMS5003;17796;49.296;-117.656;2022-08-01T13:32:34;12;10;
31163;PMS5003;17796;49.296;-117.656;2022-08-01T13:47:38;7;7;
31163;PMS5003;17796;49.296;-117.656;2022-08-01T14:02:42;6;6;
31163;PMS5003;17796;49.296;-117.656;2022-08-01T14:17:45;10;10;
31163;PMS5003;17796;49.296;-117.656;2022-08-01T14:32:49;8;8;
31163;PMS5003;17796;49.296;-117.656;2022-08-01T14:47:53;8;5;
31163;PMS5003;17796;49.296;-117.656;2022-08-01T15:02:57;6;6;
31163;PMS5003;17796;49.296;-117.656;2022-08-01T15:18:00;9;9;
31163;PMS5003;17796;49.296;-117.656;2022-08-01T15:33:04;6;6;
31163;PMS5003;17796;49.296;-117.656;2022-08-01T15:48:08;8;8;
31163;PMS5003;17796;49.296;-117.656;2022-08-01T16:03:11;8;8;
31163;PMS5003;17796;49.296;-117.656;2022-08-01T16:18:15;7;7;
31163;PMS5003;17796;49.296;-117.656;2022-08-01T16:33:19;9;9;
31163;PMS5003;17796;49.296;-117.656;2022-08-01T16:48:22;16;14;
31163;PMS5003;17796;49.296;-117.656;2022-08-01T17:03:26;13;13;
31163;PMS5003;17796;49.296;-117.656;2022-08-01T17:18:30;25;23;
31163;PMS5003;17796;49.296;-117.656;2022-08-01T17:33:34;25;24;
31163;PMS5003;17796;49.296;-117.656;2022-08-01T17:48:37;24;21;
31163;PMS5003;17796;49.296;-117.656;2022-08-01T18:03:41;23;22;
31163;PMS5003;17796;49.296;-117.656;2022-08-01T18:18:45;28;26;
31163;PMS5003;17796;49.296;-117.656;2022-08-01T18:33:49;63;60;
31163;PMS5003;17796;49.296;-117.656;2022-08-01T18:48:53;44;40;
31163;PMS5003;17796;49.296;-117.656;2022-08-01T19:03:57;30;29;
31163;PMS5003;17796;49.296;-117.656;2022-08-01T19:19:04;30;27;
31163;PMS5003;17796;49.296;-117.656;2022-08-01T19:34:11;28;25;
31163;PMS5003;17796;49.296;-117.656;2022-08-01T19:49:15;31;28;
31163;PMS5003;17796;49.296;-117.656;2022-08-01T20:04:20;29;25;
31163;PMS5003;17796;49.296;-117.656;2022-08-01T20:19:26;23;23;
31163;PMS5003;17796;49.296;-117.656;2022-08-01T20:34:33;23;22;
31163;PMS5003;17796;49.296;-117.656;2022-08-01T20:49:38;29;24;
31163;PMS5003;17796;49.296;-117.656;2022-08-01T21:04:51;39;31;
31163;PMS5003;17796;49.296;-117.656;2022-08-01T21:20:03;28;28;
31163;PMS5003;17796;49.296;-117.656;2022-08-01T21:35:08;27;25;
31163;PMS5003;17796;49.296;-117.656;2022-08-01T21:50:12;38;34;
31163;PMS5003;17796;49.296;-117.656;2022-08-01T22:05:16;41;36;
31163;PMS5003;17796;49.296;-117.656;2022-08-01T22:20:21;29;27;
31163;PMS5003;17796;49.296;-117.656;2022-08-01T22:35:26;36;33;
31163;PMS5003;17796;49.296;-117.656;2022-08-01T22:50:35;35;33;
31163;PMS5003;17796;49.296;-117.656;2022-08-01T23:05:45;34;33;
31163;PMS5003;17796;49.296;-117.656;2022-08-01T23:20:50;34;30;
31163;PMS5003;17796;49.296;-117.656;2022-08-01T23:35:54;34;32;
31163;PMS5003;17796;49.296;-117.656;2022-08-01T23:50:57;32;31;
